createdAt,value
2019-01-02T00:00:52.564Z,20.28
2019-01-02T00:01:52.559Z,20.29
2019-01-02T00:02:52.569Z,20.29
2019-01-02T00:03:52.576Z,20.28
2019-01-02T00:04:52.509Z,20.28
2019-01-02T00:05:52.510Z,20.29
2019-01-02T00:06:52.486Z,20.31
2019-01-02T00:07:52.485Z,20.34
2019-01-02T00:08:52.470Z,20.29
2019-01-02T00:09:52.453Z,20.26
2019-01-02T00:10:52.624Z,20.18
2019-01-02T00:11:52.432Z,20.26
2019-01-02T00:12:52.418Z,20.28
2019-01-02T00:13:52.425Z,20.28
2019-01-02T00:14:52.398Z,20.16
2019-01-02T00:15:52.439Z,20.19
2019-01-02T00:16:52.387Z,20.26
2019-01-02T00:17:52.397Z,20.26
2019-01-02T00:18:52.354Z,20.28
2019-01-02T00:19:52.340Z,20.26
2019-01-02T00:20:52.490Z,20.28
2019-01-02T00:21:52.318Z,20.26
2019-01-02T00:22:52.312Z,20.37
2019-01-02T00:23:52.303Z,20.25
2019-01-02T00:24:52.288Z,20.39
2019-01-02T00:25:52.908Z,20.41
2019-01-02T00:26:52.263Z,20.32
2019-01-02T00:27:52.250Z,20.40
2019-01-02T00:28:52.265Z,20.40
2019-01-02T00:29:52.233Z,20.37
2019-01-02T00:30:52.229Z,20.31
2019-01-02T00:31:52.225Z,20.29
2019-01-02T00:32:52.203Z,20.29
2019-01-02T00:33:52.192Z,20.25
2019-01-02T00:34:52.177Z,20.32
2019-01-02T00:35:52.173Z,20.32
2019-01-02T00:36:52.159Z,20.28
2019-01-02T00:37:52.144Z,20.29
2019-01-02T00:38:52.132Z,20.24
2019-01-02T00:39:52.120Z,20.28
2019-01-02T00:40:52.125Z,20.25
2019-01-02T00:41:52.100Z,20.26
2019-01-02T00:42:52.116Z,20.18
2019-01-02T00:43:52.077Z,20.16
2019-01-02T00:44:52.105Z,20.29
2019-01-02T00:45:52.063Z,20.29
2019-01-02T00:46:52.043Z,20.26
2019-01-02T00:47:52.074Z,20.24
2019-01-02T00:48:52.025Z,20.28
2019-01-02T00:49:52.009Z,20.24
2019-01-02T00:50:52.022Z,20.13
2019-01-02T00:51:52.025Z,20.18
2019-01-02T00:52:51.995Z,20.16
2019-01-02T00:53:51.983Z,20.24
2019-01-02T00:54:52.229Z,20.21
2019-01-02T00:55:51.946Z,20.21
2019-01-02T00:56:51.930Z,20.22
2019-01-02T00:57:51.918Z,20.18
2019-01-02T00:58:51.935Z,20.25
2019-01-02T00:59:51.930Z,20.19
2019-01-02T01:00:51.898Z,20.19
2019-01-02T01:01:51.891Z,20.21
2019-01-02T01:02:52.016Z,20.22
2019-01-02T01:03:51.851Z,20.22
2019-01-02T01:04:51.842Z,20.21
2019-01-02T01:05:51.883Z,20.22
2019-01-02T01:06:51.913Z,20.19
2019-01-02T01:07:51.812Z,20.26
2019-01-02T01:08:51.799Z,20.28
2019-01-02T01:09:51.795Z,20.26
2019-01-02T01:10:51.787Z,20.31
2019-01-02T01:11:51.852Z,20.29
2019-01-02T01:12:51.760Z,20.32
2019-01-02T01:13:51.749Z,20.32
2019-01-02T01:14:51.772Z,20.31
2019-01-02T01:15:51.739Z,20.26
2019-01-02T01:16:51.725Z,20.29
2019-01-02T01:17:51.711Z,20.26
2019-01-02T01:18:51.708Z,20.40
2019-01-02T01:19:51.689Z,20.36
2019-01-02T01:20:51.768Z,20.31
2019-01-02T01:21:51.657Z,20.29
2019-01-02T01:22:51.642Z,20.36
2019-01-02T01:23:51.652Z,20.32
2019-01-02T01:24:51.617Z,20.28
2019-01-02T01:25:51.618Z,20.25
2019-01-02T01:26:51.614Z,20.32
2019-01-02T01:27:51.593Z,20.29
2019-01-02T01:28:51.581Z,20.24
2019-01-02T01:29:51.563Z,20.28
2019-01-02T01:30:51.570Z,20.28
2019-01-02T01:31:51.540Z,20.21
2019-01-02T01:32:51.552Z,20.14
2019-01-02T01:33:51.734Z,20.26
2019-01-02T01:34:51.511Z,20.24
2019-01-02T01:35:51.517Z,20.16
2019-01-02T01:36:51.499Z,20.21
2019-01-02T01:37:51.508Z,20.21
2019-01-02T01:38:51.461Z,20.18
2019-01-02T01:39:51.452Z,20.21
2019-01-02T01:40:51.600Z,20.19
2019-01-02T01:41:51.433Z,20.21
2019-01-02T01:42:51.423Z,20.16
2019-01-02T01:43:51.441Z,20.18
2019-01-02T01:44:51.402Z,20.21
2019-01-02T01:45:51.409Z,20.21
2019-01-02T01:46:51.374Z,20.16
2019-01-02T01:47:51.515Z,20.21
2019-01-02T01:48:51.355Z,20.16
2019-01-02T01:49:51.346Z,20.19
2019-01-02T01:50:51.348Z,20.13
2019-01-02T01:51:51.317Z,20.18
2019-01-02T01:52:51.312Z,20.14
2019-01-02T01:53:51.306Z,20.13
2019-01-02T01:54:51.283Z,20.14
2019-01-02T01:55:51.378Z,20.21
2019-01-02T01:56:51.263Z,20.18
2019-01-02T01:57:51.304Z,20.16
2019-01-02T01:58:51.239Z,20.16
2019-01-02T01:59:51.237Z,20.16
2019-01-02T02:00:51.232Z,20.25
2019-01-02T02:01:51.209Z,20.16
2019-01-02T02:02:51.199Z,20.18
2019-01-02T02:03:51.185Z,20.22
2019-01-02T02:04:51.191Z,20.29
2019-01-02T02:05:51.224Z,20.32
2019-01-02T02:06:51.223Z,20.31
2019-01-02T02:07:51.162Z,20.31
2019-01-02T02:08:51.128Z,20.29
2019-01-02T02:09:51.249Z,20.28
2019-01-02T02:10:51.116Z,20.26
2019-01-02T02:11:51.205Z,20.26
2019-01-02T02:12:51.084Z,20.28
2019-01-02T02:13:51.072Z,20.18
2019-01-02T02:14:51.093Z,20.29
2019-01-02T02:15:51.061Z,20.18
2019-01-02T02:16:51.044Z,20.16
2019-01-02T02:17:51.150Z,20.19
2019-01-02T02:18:51.041Z,20.22
2019-01-02T02:19:51.007Z,20.16
2019-01-02T02:20:51.099Z,20.19
2019-01-02T02:21:50.991Z,20.21
2019-01-02T02:22:50.974Z,20.14
2019-01-02T02:23:50.992Z,20.21
2019-01-02T02:24:50.951Z,20.13
2019-01-02T02:25:50.953Z,20.19
2019-01-02T02:26:50.982Z,20.11
2019-01-02T02:27:51.099Z,20.13
2019-01-02T02:28:50.906Z,20.19
2019-01-02T02:29:50.899Z,20.21
2019-01-02T02:30:51.002Z,20.18
2019-01-02T02:31:50.873Z,20.13
2019-01-02T02:32:50.863Z,20.18
2019-01-02T02:33:50.878Z,20.11
2019-01-02T02:34:50.839Z,20.13
2019-01-02T02:35:50.839Z,20.19
2019-01-02T02:36:50.817Z,20.19
2019-01-02T02:37:50.902Z,20.21
2019-01-02T02:38:50.836Z,20.18
2019-01-02T02:39:50.787Z,20.11
2019-01-02T02:40:50.818Z,20.16
2019-01-02T02:41:50.763Z,20.18
2019-01-02T02:42:50.758Z,20.19
2019-01-02T02:43:50.740Z,20.21
2019-01-02T02:44:50.728Z,20.13
2019-01-02T02:45:50.752Z,20.21
2019-01-02T02:46:50.741Z,20.21
2019-01-02T02:47:50.856Z,20.21
2019-01-02T02:48:50.688Z,20.19
2019-01-02T02:49:50.678Z,20.19
2019-01-02T02:50:50.725Z,20.19
2019-01-02T02:51:50.666Z,20.16
2019-01-02T02:52:50.651Z,20.16
2019-01-02T02:53:50.646Z,20.14
2019-01-02T02:54:50.653Z,20.19
2019-01-02T02:55:50.645Z,20.26
2019-01-02T02:56:50.614Z,20.34
2019-01-02T02:57:50.602Z,20.28
2019-01-02T02:58:50.598Z,20.32
2019-01-02T02:59:50.643Z,20.22
2019-01-02T03:00:50.570Z,20.29
2019-01-02T03:01:50.562Z,20.31
2019-01-02T03:02:50.544Z,20.26
2019-01-02T03:03:50.525Z,20.31
2019-01-02T03:04:50.509Z,20.29
2019-01-02T03:05:50.544Z,20.28
2019-01-02T03:06:52.621Z,20.26
2019-01-02T03:07:50.475Z,20.19
2019-01-02T03:08:50.464Z,20.19
2019-01-02T03:09:50.454Z,20.16
2019-01-02T03:10:50.479Z,20.24
2019-01-02T03:11:50.438Z,20.13
2019-01-02T03:12:50.418Z,20.18
2019-01-02T03:13:50.409Z,20.22
2019-01-02T03:14:50.398Z,20.16
2019-01-02T03:15:50.399Z,20.21
2019-01-02T03:16:50.409Z,20.18
2019-01-02T03:17:50.373Z,20.16
2019-01-02T03:18:50.350Z,20.21
2019-01-02T03:19:50.341Z,20.21
2019-01-02T03:20:50.356Z,20.21
2019-01-02T03:21:50.320Z,20.16
2019-01-02T03:22:50.316Z,20.18
2019-01-02T03:23:50.309Z,20.13
2019-01-02T03:24:50.285Z,20.24
2019-01-02T03:25:50.294Z,20.22
2019-01-02T03:26:50.273Z,20.16
2019-01-02T03:27:50.258Z,20.16
2019-01-02T03:28:50.249Z,20.14
2019-01-02T03:29:50.237Z,20.19
2019-01-02T03:30:50.225Z,20.19
2019-01-02T03:31:50.219Z,20.19
2019-01-02T03:32:50.207Z,20.14
2019-01-02T03:33:50.188Z,20.16
2019-01-02T03:34:50.178Z,20.11
2019-01-02T03:35:50.161Z,20.16
2019-01-02T03:36:50.163Z,20.10
2019-01-02T03:37:50.150Z,20.09
2019-01-02T03:38:50.135Z,20.19
2019-01-02T03:39:50.155Z,20.16
2019-01-02T03:40:50.118Z,20.16
2019-01-02T03:41:50.105Z,20.18
2019-01-02T03:42:50.087Z,20.18
2019-01-02T03:43:50.082Z,20.25
2019-01-02T03:44:50.065Z,20.13
2019-01-02T03:45:50.084Z,20.29
2019-01-02T03:46:50.065Z,20.28
2019-01-02T03:47:50.062Z,20.21
2019-01-02T03:48:50.021Z,20.31
2019-01-02T03:49:50.009Z,20.21
2019-01-02T03:50:50.004Z,20.29
2019-01-02T03:51:49.995Z,20.21
2019-01-02T03:52:49.981Z,20.18
2019-01-02T03:53:49.968Z,20.16
2019-01-02T03:54:49.975Z,20.14
2019-01-02T03:55:49.961Z,20.24
2019-01-02T03:56:49.939Z,20.24
2019-01-02T03:57:49.938Z,20.24
2019-01-02T03:58:49.910Z,20.18
2019-01-02T03:59:49.900Z,20.19
2019-01-02T04:00:49.899Z,20.22
2019-01-02T04:01:49.911Z,20.16
2019-01-02T04:02:50.043Z,20.21
2019-01-02T04:03:49.863Z,20.18
2019-01-02T04:04:49.844Z,20.18
2019-01-02T04:05:49.830Z,20.18
2019-01-02T04:06:49.832Z,20.19
2019-01-02T04:07:49.822Z,20.16
2019-01-02T04:08:49.822Z,20.21
2019-01-02T04:09:49.794Z,20.22
2019-01-02T04:10:49.777Z,20.14
2019-01-02T04:11:49.881Z,20.13
2019-01-02T04:12:49.758Z,20.10
2019-01-02T04:13:49.754Z,20.16
2019-01-02T04:14:49.741Z,20.13
2019-01-02T04:15:49.739Z,20.18
2019-01-02T04:16:49.732Z,20.16
2019-01-02T04:17:49.724Z,20.11
2019-01-02T04:18:49.692Z,20.11
2019-01-02T04:19:49.687Z,20.14
2019-01-02T04:20:49.675Z,20.14
2019-01-02T04:21:49.677Z,20.16
2019-01-02T04:22:49.644Z,20.21
2019-01-02T04:23:49.632Z,20.16
2019-01-02T04:24:49.623Z,20.10
2019-01-02T04:25:49.612Z,20.09
2019-01-02T04:26:49.615Z,20.11
2019-01-02T04:27:49.601Z,20.14
2019-01-02T04:28:49.606Z,20.16
2019-01-02T04:29:49.568Z,20.16
2019-01-02T04:30:49.560Z,20.18
2019-01-02T04:31:49.557Z,20.11
2019-01-02T04:32:49.538Z,20.10
2019-01-02T04:33:49.529Z,20.19
2019-01-02T04:34:49.543Z,20.19
2019-01-02T04:35:49.501Z,20.22
2019-01-02T04:36:49.499Z,20.19
2019-01-02T04:37:49.477Z,20.14
2019-01-02T04:38:49.469Z,20.19
2019-01-02T04:39:49.455Z,20.18
2019-01-02T04:40:49.472Z,20.29
2019-01-02T04:41:49.491Z,20.29
2019-01-02T04:42:49.425Z,20.26
2019-01-02T04:43:49.421Z,20.25
2019-01-02T04:44:49.404Z,20.16
2019-01-02T04:45:49.392Z,20.14
2019-01-02T04:46:49.388Z,20.25
2019-01-02T04:47:49.382Z,20.21
2019-01-02T04:48:49.377Z,20.19
2019-01-02T04:49:49.355Z,20.16
2019-01-02T04:50:49.332Z,20.16
2019-01-02T04:51:49.330Z,20.16
2019-01-02T04:52:49.317Z,20.16
2019-01-02T04:53:49.299Z,20.13
2019-01-02T04:54:49.288Z,20.14
2019-01-02T04:55:49.286Z,20.13
2019-01-02T04:56:49.400Z,20.19
2019-01-02T04:57:49.350Z,20.21
2019-01-02T04:58:49.262Z,20.14
2019-01-02T04:59:49.236Z,20.22
2019-01-02T05:00:49.241Z,20.13
2019-01-02T05:01:49.434Z,20.09
2019-01-02T05:02:49.201Z,20.18
2019-01-02T05:03:49.189Z,20.18
2019-01-02T05:04:49.192Z,20.11
2019-01-02T05:05:49.199Z,20.13
2019-01-02T05:06:49.215Z,20.13
2019-01-02T05:07:49.170Z,20.16
2019-01-02T05:08:49.136Z,20.09
2019-01-02T05:09:49.476Z,20.11
2019-01-02T05:10:49.112Z,20.13
2019-01-02T05:11:49.111Z,20.13
2019-01-02T05:12:49.137Z,20.14
2019-01-02T05:13:49.078Z,20.11
2019-01-02T05:14:49.066Z,20.09
2019-01-02T05:15:49.068Z,20.11
2019-01-02T05:16:49.070Z,20.10
2019-01-02T05:17:49.039Z,20.11
2019-01-02T05:18:49.025Z,20.16
2019-01-02T05:19:49.014Z,20.13
2019-01-02T05:20:49.001Z,20.09
2019-01-02T05:21:49.021Z,20.11
2019-01-02T05:22:48.977Z,20.13
2019-01-02T05:23:48.966Z,20.14
2019-01-02T05:24:48.959Z,20.13
2019-01-02T05:25:48.947Z,20.19
2019-01-02T05:26:48.948Z,20.16
2019-01-02T05:27:48.944Z,20.14
2019-01-02T05:28:48.967Z,20.14
2019-01-02T05:29:48.923Z,20.21
2019-01-02T05:30:48.891Z,20.18
2019-01-02T05:31:48.915Z,20.19
2019-01-02T05:32:48.870Z,20.19
2019-01-02T05:33:48.856Z,20.19
2019-01-02T05:34:48.854Z,20.21
2019-01-02T05:35:48.861Z,20.19
2019-01-02T05:36:48.864Z,20.11
2019-01-02T05:37:48.827Z,20.13
2019-01-02T05:38:48.802Z,20.21
2019-01-02T05:39:48.793Z,20.13
2019-01-02T05:40:48.785Z,20.18
2019-01-02T05:41:48.783Z,20.24
2019-01-02T05:42:48.776Z,20.21
2019-01-02T05:43:48.747Z,20.21
2019-01-02T05:44:48.735Z,20.16
2019-01-02T05:45:48.723Z,20.16
2019-01-02T05:46:48.721Z,20.16
2019-01-02T05:47:48.702Z,20.13
2019-01-02T05:48:48.707Z,20.19
2019-01-02T05:49:48.676Z,20.14
2019-01-02T05:50:48.668Z,20.13
2019-01-02T05:51:48.663Z,20.16
2019-01-02T05:52:48.644Z,20.14
2019-01-02T05:53:48.632Z,20.16
2019-01-02T05:54:48.675Z,20.10
2019-01-02T05:55:48.612Z,20.09
2019-01-02T05:56:48.612Z,20.13
2019-01-02T05:57:48.590Z,20.16
2019-01-02T05:58:48.822Z,20.13
2019-01-02T05:59:48.588Z,20.19
2019-01-02T06:00:48.557Z,20.22
2019-01-02T06:01:48.579Z,20.16
2019-01-02T06:02:48.537Z,20.26
2019-01-02T06:03:48.529Z,20.16
2019-01-02T06:04:48.535Z,20.19
2019-01-02T06:05:48.515Z,20.19
2019-01-02T06:06:48.501Z,20.16
2019-01-02T06:07:48.477Z,20.16
2019-01-02T06:08:48.466Z,20.14
2019-01-02T06:09:48.486Z,20.18
2019-01-02T06:10:48.450Z,20.18
2019-01-02T06:11:48.469Z,20.16
2019-01-02T06:12:48.420Z,20.18
2019-01-02T06:13:48.412Z,20.21
2019-01-02T06:14:48.401Z,20.21
2019-01-02T06:15:48.407Z,20.21
2019-01-02T06:16:48.409Z,20.29
2019-01-02T06:17:48.373Z,20.28
2019-01-02T06:18:48.356Z,20.31
2019-01-02T06:19:48.343Z,20.25
2019-01-02T06:20:48.332Z,20.28
2019-01-02T06:21:48.330Z,20.41
2019-01-02T06:22:48.341Z,20.28
2019-01-02T06:23:48.299Z,20.34
2019-01-02T06:24:48.287Z,20.26
2019-01-02T06:25:48.283Z,20.26
2019-01-02T06:26:48.367Z,20.26
2019-01-02T06:27:48.261Z,20.36
2019-01-02T06:28:48.257Z,20.28
2019-01-02T06:29:48.248Z,20.21
2019-01-02T06:30:48.226Z,20.22
2019-01-02T06:31:48.374Z,20.10
2019-01-02T06:32:48.202Z,20.07
2019-01-02T06:33:48.191Z,20.02
2019-01-02T06:34:48.180Z,19.96
2019-01-02T06:35:48.316Z,19.92
2019-01-02T06:36:48.177Z,19.86
2019-01-02T06:37:48.144Z,19.94
2019-01-02T06:38:48.148Z,19.92
2019-01-02T06:39:48.165Z,19.89
2019-01-02T06:40:48.124Z,19.91
2019-01-02T06:41:48.122Z,19.89
2019-01-02T06:42:48.108Z,19.86
2019-01-02T06:43:48.086Z,19.86
2019-01-02T06:44:48.069Z,19.84
2019-01-02T06:45:48.057Z,19.73
2019-01-02T06:46:48.070Z,19.70
2019-01-02T06:47:48.039Z,19.76
2019-01-02T06:48:48.051Z,19.86
2019-01-02T06:49:48.012Z,19.84
2019-01-02T06:50:48.002Z,19.85
2019-01-02T06:51:47.999Z,19.88
2019-01-02T06:52:47.992Z,19.85
2019-01-02T06:53:47.967Z,19.85
2019-01-02T06:54:48.014Z,19.86
2019-01-02T06:55:47.952Z,19.86
2019-01-02T06:56:47.934Z,19.84
2019-01-02T06:57:47.943Z,19.99
2019-01-02T06:58:47.919Z,19.99
2019-01-02T06:59:47.906Z,20.13
2019-01-02T07:00:47.922Z,20.10
2019-01-02T07:01:47.950Z,20.21
2019-01-02T07:02:47.875Z,20.14
2019-01-02T07:03:47.861Z,20.28
2019-01-02T07:04:47.846Z,20.31
2019-01-02T07:05:47.838Z,20.24
2019-01-02T07:06:47.835Z,20.32
2019-01-02T07:07:47.863Z,20.43
2019-01-02T07:08:47.802Z,20.51
2019-01-02T07:09:47.791Z,20.51
2019-01-02T07:10:47.850Z,20.52
2019-01-02T07:11:47.768Z,20.50
2019-01-02T07:12:47.762Z,20.52
2019-01-02T07:13:48.537Z,20.26
2019-01-02T07:14:47.739Z,20.16
2019-01-02T07:15:47.726Z,20.06
2019-01-02T07:16:47.743Z,19.88
2019-01-02T07:17:47.712Z,19.69
2019-01-02T07:18:47.711Z,19.48
2019-01-02T07:19:47.683Z,19.36
2019-01-02T07:20:47.688Z,19.33
2019-01-02T07:21:47.672Z,19.21
2019-01-02T07:22:47.651Z,18.99
2019-01-02T07:23:47.652Z,19.00
2019-01-02T07:24:47.639Z,18.78
2019-01-02T07:25:47.621Z,18.77
2019-01-02T07:26:48.350Z,18.68
2019-01-02T07:27:47.589Z,18.65
2019-01-02T07:28:47.648Z,18.59
2019-01-02T07:29:47.585Z,18.50
2019-01-02T07:30:47.558Z,18.43
2019-01-02T07:31:47.546Z,18.44
2019-01-02T07:32:47.545Z,18.43
2019-01-02T07:33:47.540Z,18.41
2019-01-02T07:34:47.534Z,18.41
2019-01-02T07:35:47.505Z,18.40
2019-01-02T07:36:47.491Z,18.40
2019-01-02T07:37:47.506Z,18.40
2019-01-02T07:38:47.466Z,18.34
2019-01-02T07:39:47.482Z,18.45
2019-01-02T07:40:47.454Z,18.43
2019-01-02T07:41:47.436Z,18.37
2019-01-02T07:42:47.468Z,18.33
2019-01-02T07:43:47.436Z,18.40
2019-01-02T07:44:47.407Z,18.43
2019-01-02T07:45:47.390Z,18.37
2019-01-02T07:46:47.424Z,18.41
2019-01-02T07:47:47.371Z,18.37
2019-01-02T07:48:47.378Z,18.43
2019-01-02T07:49:47.357Z,18.44
2019-01-02T07:50:47.347Z,18.43
2019-01-02T07:51:47.331Z,18.34
2019-01-02T07:52:47.325Z,18.45
2019-01-02T07:53:47.318Z,18.45
2019-01-02T07:54:47.303Z,18.52
2019-01-02T07:55:47.286Z,18.49
2019-01-02T07:56:47.271Z,18.50
2019-01-02T07:57:47.262Z,18.53
2019-01-02T07:58:47.258Z,18.52
2019-01-02T07:59:47.258Z,18.63
2019-01-02T08:00:47.235Z,18.83
2019-01-02T08:01:47.220Z,18.98
2019-01-02T08:02:47.204Z,19.21
2019-01-02T08:03:47.205Z,19.36
2019-01-02T08:04:47.288Z,19.63
2019-01-02T08:05:47.166Z,19.76
2019-01-02T08:06:47.166Z,19.91
2019-01-02T08:07:47.159Z,20.09
2019-01-02T08:08:47.146Z,20.21
2019-01-02T08:09:47.135Z,20.28
2019-01-02T08:10:47.130Z,20.31
2019-01-02T08:11:47.184Z,20.52
2019-01-02T08:12:47.096Z,20.56
2019-01-02T08:13:47.086Z,20.63
2019-01-02T08:14:47.076Z,20.66
2019-01-02T08:15:47.075Z,20.69
2019-01-02T08:16:47.052Z,20.74
2019-01-02T08:17:47.034Z,20.82
2019-01-02T08:18:47.048Z,20.82
2019-01-02T08:19:47.022Z,20.81
2019-01-02T08:20:47.009Z,20.92
2019-01-02T08:21:47.025Z,20.97
2019-01-02T08:22:46.993Z,20.99
2019-01-02T08:23:46.967Z,20.97
2019-01-02T08:24:46.965Z,21.02
2019-01-02T08:25:46.948Z,20.97
2019-01-02T08:26:46.942Z,21.06
2019-01-02T08:27:46.936Z,21.11
2019-01-02T08:28:46.939Z,20.99
2019-01-02T08:29:46.910Z,21.00
2019-01-02T08:30:46.937Z,20.99
2019-01-02T08:31:46.879Z,21.06
2019-01-02T08:32:46.872Z,21.03
2019-01-02T08:33:46.857Z,21.05
2019-01-02T08:34:46.968Z,21.11
2019-01-02T08:35:46.837Z,21.06
2019-01-02T08:36:46.909Z,21.06
2019-01-02T08:37:46.814Z,20.99
2019-01-02T08:38:46.877Z,21.03
2019-01-02T08:39:46.833Z,20.93
2019-01-02T08:40:46.794Z,20.99
2019-01-02T08:41:46.769Z,21.00
2019-01-02T08:42:46.773Z,21.00
2019-01-02T08:43:46.747Z,20.84
2019-01-02T08:44:46.751Z,20.82
2019-01-02T08:45:46.734Z,20.85
2019-01-02T08:46:46.714Z,20.85
2019-01-02T08:47:46.700Z,20.82
2019-01-02T08:48:46.693Z,20.84
2019-01-02T08:49:46.704Z,20.81
2019-01-02T08:50:46.710Z,20.88
2019-01-02T08:51:46.667Z,20.87
2019-01-02T08:52:46.668Z,20.82
2019-01-02T08:53:46.645Z,20.80
2019-01-02T08:54:46.635Z,20.88
2019-01-02T08:55:46.624Z,20.84
2019-01-02T08:56:46.624Z,20.85
2019-01-02T08:57:46.625Z,20.82
2019-01-02T08:58:46.582Z,20.85
2019-01-02T08:59:46.583Z,20.90
2019-01-02T09:00:47.251Z,20.84
2019-01-02T09:01:46.551Z,20.97
2019-01-02T09:02:46.539Z,20.85
2019-01-02T09:03:46.539Z,20.87
2019-01-02T09:04:46.547Z,20.92
2019-01-02T09:05:46.523Z,20.90
2019-01-02T09:06:46.491Z,20.88
2019-01-02T09:07:46.480Z,20.81
2019-01-02T09:08:46.526Z,20.87
2019-01-02T09:09:46.473Z,20.96
2019-01-02T09:10:46.485Z,20.92
2019-01-02T09:11:46.444Z,20.95
2019-01-02T09:12:46.445Z,20.95
2019-01-02T09:13:46.412Z,20.96
2019-01-02T09:14:46.427Z,20.84
2019-01-02T09:15:46.399Z,20.88
2019-01-02T09:16:46.425Z,20.92
2019-01-02T09:17:46.432Z,20.82
2019-01-02T09:18:46.427Z,20.95
2019-01-02T09:19:46.395Z,21.02
2019-01-02T09:20:46.360Z,20.87
2019-01-02T09:21:46.325Z,20.96
2019-01-02T09:22:46.319Z,20.97
2019-01-02T09:23:46.304Z,20.90
2019-01-02T09:24:46.288Z,20.90
2019-01-02T09:25:46.324Z,20.82
2019-01-02T09:26:46.306Z,20.82
2019-01-02T09:27:46.281Z,20.84
2019-01-02T09:28:46.251Z,20.97
2019-01-02T09:29:46.251Z,20.90
2019-01-02T09:30:46.267Z,20.95
2019-01-02T09:31:46.228Z,20.88
2019-01-02T09:32:46.344Z,20.97
2019-01-02T09:33:52.025Z,20.97
2019-01-02T09:34:47.200Z,20.97
2019-01-02T09:35:46.207Z,21.00
2019-01-02T09:36:46.171Z,21.05
2019-01-02T09:37:46.246Z,20.96
2019-01-02T09:38:46.161Z,21.14
2019-01-02T09:39:46.125Z,21.12
2019-01-02T09:40:46.182Z,20.97
2019-01-02T09:41:46.134Z,21.09
2019-01-02T09:42:46.103Z,21.09
2019-01-02T09:43:46.085Z,20.99
2019-01-02T09:44:46.072Z,21.12
2019-01-02T09:45:46.097Z,21.00
2019-01-02T09:46:46.070Z,21.05
2019-01-02T09:47:46.041Z,21.06
2019-01-02T09:48:46.025Z,21.09
2019-01-02T09:49:46.019Z,21.03
2019-01-02T09:50:46.024Z,21.07
2019-01-02T09:51:46.002Z,21.03
2019-01-02T09:52:46.038Z,21.05
2019-01-02T09:53:46.055Z,21.09
2019-01-02T09:54:45.967Z,21.02
2019-01-02T09:55:45.961Z,20.99
2019-01-02T09:56:45.949Z,20.95
2019-01-02T09:57:46.022Z,21.07
2019-01-02T09:58:45.929Z,20.95
2019-01-02T09:59:45.929Z,21.00
2019-01-02T10:00:45.921Z,20.95
2019-01-02T10:01:45.887Z,21.00
2019-01-02T10:02:45.882Z,20.99
2019-01-02T10:03:45.901Z,20.93
2019-01-02T10:04:45.851Z,20.95
2019-01-02T10:05:45.868Z,21.00
2019-01-02T10:06:45.826Z,20.99
2019-01-02T10:07:45.900Z,20.95
2019-01-02T10:08:45.808Z,21.00
2019-01-02T10:09:45.816Z,21.06
2019-01-02T10:10:45.778Z,20.97
2019-01-02T10:11:45.781Z,21.02
2019-01-02T10:12:45.764Z,21.03
2019-01-02T10:13:45.781Z,21.00
2019-01-02T10:14:45.756Z,21.00
2019-01-02T10:15:45.732Z,20.99
2019-01-02T10:16:45.773Z,20.99
2019-01-02T10:17:45.701Z,21.02
2019-01-02T10:18:45.691Z,21.09
2019-01-02T10:19:45.681Z,20.96
2019-01-02T10:20:45.672Z,20.96
2019-01-02T10:21:45.694Z,20.96
2019-01-02T10:22:45.673Z,21.09
2019-01-02T10:23:45.668Z,21.07
2019-01-02T10:24:45.638Z,20.99
2019-01-02T10:25:45.619Z,21.02
2019-01-02T10:26:45.642Z,21.06
2019-01-02T10:27:45.589Z,21.11
2019-01-02T10:28:45.582Z,21.20
2019-01-02T10:29:45.575Z,21.12
2019-01-02T10:30:45.554Z,21.15
2019-01-02T10:31:45.553Z,21.07
2019-01-02T10:32:45.596Z,21.12
2019-01-02T10:33:45.535Z,21.11
2019-01-02T10:34:45.514Z,21.11
2019-01-02T10:35:45.504Z,21.11
2019-01-02T10:36:45.500Z,21.20
2019-01-02T10:37:45.494Z,21.17
2019-01-02T10:38:45.520Z,21.11
2019-01-02T10:39:45.677Z,21.20
2019-01-02T10:40:45.449Z,21.18
2019-01-02T10:41:45.433Z,21.21
2019-01-02T10:42:45.464Z,21.14
2019-01-02T10:43:45.409Z,21.15
2019-01-02T10:44:45.403Z,21.15
2019-01-02T10:45:45.420Z,21.25
2019-01-02T10:46:45.405Z,21.12
2019-01-02T10:47:45.386Z,21.09
2019-01-02T10:48:45.363Z,21.09
2019-01-02T10:49:45.345Z,21.11
2019-01-02T10:50:45.341Z,21.06
2019-01-02T10:51:45.343Z,21.15
2019-01-02T10:52:46.787Z,21.18
2019-01-02T10:53:45.325Z,21.00
2019-01-02T10:54:45.298Z,20.90
2019-01-02T10:55:45.281Z,21.02
2019-01-02T10:56:45.291Z,21.00
2019-01-02T10:57:45.316Z,21.09
2019-01-02T10:58:45.268Z,20.95
2019-01-02T10:59:46.359Z,21.07
2019-01-02T11:00:45.289Z,20.99
2019-01-02T11:01:45.231Z,21.02
2019-01-02T11:02:45.231Z,21.06
2019-01-02T11:03:45.221Z,20.99
2019-01-02T11:04:45.211Z,20.96
2019-01-02T11:05:45.174Z,20.96
2019-01-02T11:06:45.194Z,21.05
2019-01-02T11:07:45.167Z,20.95
2019-01-02T11:08:45.179Z,20.96
2019-01-02T11:09:45.151Z,20.99
2019-01-02T11:10:45.118Z,20.99
2019-01-02T11:11:45.111Z,21.05
2019-01-02T11:12:45.104Z,21.00
2019-01-02T11:13:45.094Z,21.02
2019-01-02T11:14:45.097Z,21.00
2019-01-02T11:15:45.063Z,20.97
2019-01-02T11:16:45.049Z,20.97
2019-01-02T11:17:45.064Z,20.97
2019-01-02T11:18:45.029Z,20.93
2019-01-02T11:19:45.010Z,21.11
2019-01-02T11:20:45.020Z,20.95
2019-01-02T11:21:44.991Z,21.06
2019-01-02T11:22:45.054Z,21.02
2019-01-02T11:23:44.973Z,21.03
2019-01-02T11:24:44.980Z,21.03
2019-01-02T11:25:44.987Z,21.06
2019-01-02T11:26:44.957Z,21.14
2019-01-02T11:27:44.948Z,21.11
2019-01-02T11:28:44.967Z,21.06
2019-01-02T11:29:45.062Z,21.15
2019-01-02T11:30:44.894Z,21.03
2019-01-02T11:31:44.892Z,21.03
2019-01-02T11:32:44.875Z,20.96
2019-01-02T11:33:44.901Z,21.11
2019-01-02T11:34:44.853Z,20.99
2019-01-02T11:35:44.836Z,21.05
2019-01-02T11:36:44.833Z,21.09
2019-01-02T11:37:44.825Z,20.96
2019-01-02T11:38:44.840Z,20.96
2019-01-02T11:39:44.966Z,21.02
2019-01-02T11:40:44.786Z,20.99
2019-01-02T11:41:44.771Z,21.02
2019-01-02T11:42:44.756Z,21.09
2019-01-02T11:43:44.786Z,21.11
2019-01-02T11:44:44.754Z,21.09
2019-01-02T11:45:44.743Z,21.12
2019-01-02T11:46:44.744Z,21.03
2019-01-02T11:47:44.701Z,21.09
2019-01-02T11:48:44.701Z,21.02
2019-01-02T11:49:44.690Z,21.03
2019-01-02T11:50:44.690Z,21.07
2019-01-02T11:51:44.658Z,21.06
2019-01-02T11:52:44.679Z,20.96
2019-01-02T11:53:44.695Z,20.95
2019-01-02T11:54:44.629Z,21.00
2019-01-02T11:55:44.617Z,20.93
2019-01-02T11:56:44.659Z,20.95
2019-01-02T11:57:44.595Z,20.93
2019-01-02T11:58:49.909Z,20.95
2019-01-02T11:59:45.572Z,21.00
2019-01-02T12:00:44.666Z,21.06
2019-01-02T12:01:44.545Z,21.06
2019-01-02T12:02:44.535Z,20.99
2019-01-02T12:03:44.533Z,21.06
2019-01-02T12:04:44.513Z,21.07
2019-01-02T12:05:44.507Z,21.12
2019-01-02T12:06:44.546Z,21.24
2019-01-02T12:07:44.490Z,21.22
2019-01-02T12:08:44.495Z,21.21
2019-01-02T12:09:44.567Z,21.22
2019-01-02T12:10:44.453Z,21.29
2019-01-02T12:11:44.435Z,21.25
2019-01-02T12:12:44.430Z,21.32
2019-01-02T12:13:44.486Z,21.29
2019-01-02T12:14:44.465Z,21.32
2019-01-02T12:15:44.391Z,21.33
2019-01-02T12:16:44.379Z,21.40
2019-01-02T12:17:44.368Z,21.33
2019-01-02T12:18:44.362Z,21.40
2019-01-02T12:19:44.377Z,21.39
2019-01-02T12:20:44.447Z,21.45
2019-01-02T12:21:44.350Z,21.40
2019-01-02T12:22:44.322Z,21.45
2019-01-02T12:23:44.359Z,21.45
2019-01-02T12:24:44.305Z,21.45
2019-01-02T12:25:44.280Z,21.51
2019-01-02T12:26:44.345Z,21.46
2019-01-02T12:27:44.263Z,21.52
2019-01-02T12:28:44.252Z,21.50
2019-01-02T12:29:44.277Z,21.43
2019-01-02T12:30:44.918Z,21.39
2019-01-02T12:31:44.220Z,21.48
2019-01-02T12:32:44.213Z,21.48
2019-01-02T12:33:44.255Z,21.55
2019-01-02T12:34:44.276Z,21.54
2019-01-02T12:35:44.172Z,21.43
2019-01-02T12:36:44.157Z,21.51
2019-01-02T12:37:44.165Z,21.52
2019-01-02T12:38:44.137Z,21.46
2019-01-02T12:39:44.143Z,21.52
2019-01-02T12:40:44.113Z,21.52
2019-01-02T12:41:44.105Z,21.50
2019-01-02T12:42:44.119Z,21.48
2019-01-02T12:43:44.117Z,21.52
2019-01-02T12:44:44.102Z,21.52
2019-01-02T12:45:44.070Z,21.55
2019-01-02T12:46:44.057Z,21.43
2019-01-02T12:47:44.072Z,21.52
2019-01-02T12:48:44.027Z,21.50
2019-01-02T12:49:44.076Z,21.45
2019-01-02T12:50:44.171Z,21.36
2019-01-02T12:51:43.993Z,21.37
2019-01-02T12:52:43.986Z,21.30